Hampton Beach, New Hampshire
Current Conditions -  °F | °C
As of 2:55 AM on Thursday 27 Nov 2014 (Local Time) from KPSM Reporting Station
Light Snow Light Snow  
Wind Chill: 22°   Ceiling: 1000
Heat Index: 32°   Visibility: 1mi
Dew Point: 30°   Wind: 14mph
Humidity: 92%   Direction: 320°NW
Pressure: 29.72"   Gusts: NA
Location:  42.9284°N, 70.8566°W
Report Text: KPSM 270755Z 32012KT 1SM R34/P6000FT -SN BR SCT002 OVC010 00/M01 A2972 RMK SLP069 P0003 T00021009
Loading
Personal Weather Stations






























Interactive Weather Map New forecast layout! Learn more

10-Day Weather Forecast

Advertisements
Track Severe Weather on mobile